KFCH

Details ICAO KFCH
Name Fresno Chandler Executive
Region United States
Timezone America/Los_Angeles (UTC-8.0)
Plans Departing 10
Arriving 7
Stats Elevation 277 ft / 84 m (AMSL)
Location 36.732391° -119.820212°
Runways 3
Magnetic Variation 12.841° E
Sunrise 2017-12-16 15:06:49 UTC / 2017-12-16 07:06:49 Local
Sunset 2017-12-17 00:46:06 UTC / 2017-12-16 16:46:06 Local
Advertisement - Login to hide

Runways

ID Width Length Bearing (true) Bearing (mag) Surface Threshold Offset Overrun Length
12 75 ft / 23 m 3,626 ft / 1,105 m 125.78° 112.94° Asphalt 417 ft / 127 m 148 ft / 45 m
12L 70 ft / 21 m 2,588 ft / 789 m 125.80° 112.96° Concrete 0 ft / 0 m 0 ft / 0 m
12R 75 ft / 23 m 3,200 ft / 975 m 125.77° 112.93° Asphalt 240 ft / 73 m 0 ft / 0 m
30 75 ft / 23 m 3,626 ft / 1,105 m 305.79° 292.95° Asphalt 538 ft / 164 m 0 ft / 0 m
30L 75 ft / 23 m 3,200 ft / 975 m 305.77° 292.93° Asphalt 299 ft / 91 m 0 ft / 0 m
30R 70 ft / 21 m 2,588 ft / 789 m 305.80° 292.96° Concrete 0 ft / 0 m 0 ft / 0 m

Map

Weather


0- 5 10 15 20 25 30 35+ Temperature / ° C

Clouds and Precipitation
Forecast for 2017-12-17 06:00 UTC. Updated an hour ago

Ground ~20,000 ft ~40,000 ft Winds

METAR

KFCH 170615Z AUTO 00000KT 4SM BR FEW042 06/04 A2993 RMK A01

TAF

Not found

Frequencies

Recorded 135.22 MHz AWOS
Unicom 123.00 MHz Chandler CTAF
Warning: Do not use this data for real-world aviation or navigation. No guarantee of current accuracy is given.